aviador You're here:

PHHI Decoded Metar

WHEELER AFB. in HI, USA OAHU ISL.
Report Time2017-04-25 07:58:00
UTC Time2017-04-25 08:26:54
Flight Rules vfr VFR
Wind270° at 05 kt
W.Decomp.*RWY 24: 4.7 kt HW 1.6 kt RCW
W.Rank270° ranks 22
Current wind is above 270° avg. (3.7)
Visibility9999 m
Phenomena:N/A
Clouds:Few 030 Hf
Expected CloudBase > 800 ft AGL from Temp-Dew spread
CeilingNone
Temp20°C (ISA +7)
Dew Point18°C (88% RH)
QNH1020 hPa
Density Alt1,657 ft
Elevation837 ft
Report Wrong Elevation
Raw Report
PHHI 250758Z 27005KT 10SM FEW030 20/18 A3012 RMK AO2A SLP190
T01960175 $=

Extra information for PHHI:More info

Metar Taf Metar & Taf Last 4 Metars F.Rules Stats Wind Profile Meteogram Temp Stats Airport Information Weather charts Add Link Nearby VenuesMetar ALERT Operation Metar Decoded Social comments